sensor_id;sensor_type;location;lat;lon;timestamp;P1;durP1;ratioP1;P2;durP2;ratioP2
3875;SDS011;1953;51.222;6.624;2022-08-26T00:05:48;48.03;;;41.60;;
3875;SDS011;1953;51.222;6.624;2022-08-26T00:10:31;53.43;;;47.50;;
3875;SDS011;1953;51.222;6.624;2022-08-26T00:15:15;59.20;;;50.77;;
3875;SDS011;1953;51.222;6.624;2022-08-26T00:19:59;62.87;;;53.37;;
3875;SDS011;1953;51.222;6.624;2022-08-26T00:24:43;65.67;;;55.33;;
3875;SDS011;1953;51.222;6.624;2022-08-26T00:29:26;69.63;;;57.00;;
3875;SDS011;1953;51.222;6.624;2022-08-26T00:34:08;74.10;;;60.03;;
3875;SDS011;1953;51.222;6.624;2022-08-26T00:38:51;68.93;;;59.90;;
3875;SDS011;1953;51.222;6.624;2022-08-26T00:43:35;74.93;;;61.07;;
3875;SDS011;1953;51.222;6.624;2022-08-26T00:48:18;71.87;;;60.70;;
3875;SDS011;1953;51.222;6.624;2022-08-26T00:53:04;83.77;;;60.17;;
3875;SDS011;1953;51.222;6.624;2022-08-26T00:58:01;74.00;;;61.70;;
3875;SDS011;1953;51.222;6.624;2022-08-26T01:02:45;73.50;;;59.40;;
3875;SDS011;1953;51.222;6.624;2022-08-26T01:07:30;73.13;;;60.83;;
3875;SDS011;1953;51.222;6.624;2022-08-26T01:12:14;81.03;;;60.77;;
3875;SDS011;1953;51.222;6.624;2022-08-26T01:16:57;68.43;;;57.77;;
3875;SDS011;1953;51.222;6.624;2022-08-26T01:21:43;74.27;;;58.33;;
3875;SDS011;1953;51.222;6.624;2022-08-26T01:26:32;71.90;;;57.60;;
3875;SDS011;1953;51.222;6.624;2022-08-26T01:31:17;69.60;;;56.47;;
3875;SDS011;1953;51.222;6.624;2022-08-26T01:36:04;64.30;;;56.73;;
3875;SDS011;1953;51.222;6.624;2022-08-26T01:40:48;69.60;;;57.00;;
3875;SDS011;1953;51.222;6.624;2022-08-26T01:45:32;70.27;;;57.83;;
3875;SDS011;1953;51.222;6.624;2022-08-26T01:50:17;68.73;;;57.70;;
3875;SDS011;1953;51.222;6.624;2022-08-26T01:55:04;69.63;;;56.50;;
3875;SDS011;1953;51.222;6.624;2022-08-26T01:59:48;70.93;;;55.07;;
3875;SDS011;1953;51.222;6.624;2022-08-26T02:04:35;64.37;;;54.30;;
3875;SDS011;1953;51.222;6.624;2022-08-26T02:09:22;72.20;;;54.90;;
3875;SDS011;1953;51.222;6.624;2022-08-26T02:14:07;62.53;;;52.47;;
3875;SDS011;1953;51.222;6.624;2022-08-26T02:18:53;68.03;;;53.90;;
3875;SDS011;1953;51.222;6.624;2022-08-26T02:23:38;69.83;;;53.47;;
3875;SDS011;1953;51.222;6.624;2022-08-26T02:28:20;70.67;;;51.70;;
3875;SDS011;1953;51.222;6.624;2022-08-26T02:33:03;68.17;;;49.47;;
3875;SDS011;1953;51.222;6.624;2022-08-26T02:37:45;64.00;;;47.83;;
3875;SDS011;1953;51.222;6.624;2022-08-26T02:42:31;59.90;;;48.47;;
3875;SDS011;1953;51.222;6.624;2022-08-26T02:47:13;63.23;;;48.83;;
3875;SDS011;1953;51.222;6.624;2022-08-26T02:51:56;56.63;;;45.97;;
3875;SDS011;1953;51.222;6.624;2022-08-26T02:56:41;57.97;;;45.07;;
3875;SDS011;1953;51.222;6.624;2022-08-26T03:01:28;59.37;;;44.57;;
3875;SDS011;1953;51.222;6.624;2022-08-26T03:06:12;56.57;;;42.50;;
3875;SDS011;1953;51.222;6.624;2022-08-26T03:10:55;49.93;;;40.17;;
3875;SDS011;1953;51.222;6.624;2022-08-26T03:15:37;50.10;;;39.70;;
3875;SDS011;1953;51.222;6.624;2022-08-26T03:20:21;52.33;;;39.23;;
3875;SDS011;1953;51.222;6.624;2022-08-26T03:25:05;47.97;;;38.83;;
3875;SDS011;1953;51.222;6.624;2022-08-26T03:29:49;51.77;;;35.40;;
3875;SDS011;1953;51.222;6.624;2022-08-26T03:34:49;52.50;;;36.57;;
3875;SDS011;1953;51.222;6.624;2022-08-26T03:39:33;46.83;;;34.37;;
3875;SDS011;1953;51.222;6.624;2022-08-26T03:44:16;43.93;;;33.53;;
3875;SDS011;1953;51.222;6.624;2022-08-26T03:48:59;40.90;;;32.57;;
3875;SDS011;1953;51.222;6.624;2022-08-26T03:53:42;44.50;;;30.67;;
3875;SDS011;1953;51.222;6.624;2022-08-26T03:58:26;49.97;;;31.53;;
3875;SDS011;1953;51.222;6.624;2022-08-26T04:03:10;39.37;;;29.60;;
3875;SDS011;1953;51.222;6.624;2022-08-26T04:07:54;35.73;;;28.60;;
3875;SDS011;1953;51.222;6.624;2022-08-26T04:12:36;36.43;;;28.83;;
3875;SDS011;1953;51.222;6.624;2022-08-26T04:17:21;40.47;;;28.20;;
3875;SDS011;1953;51.222;6.624;2022-08-26T04:22:05;35.97;;;27.07;;
3875;SDS011;1953;51.222;6.624;2022-08-26T04:26:48;33.43;;;25.60;;
3875;SDS011;1953;51.222;6.624;2022-08-26T04:31:31;29.90;;;24.97;;
3875;SDS011;1953;51.222;6.624;2022-08-26T04:36:17;36.57;;;23.67;;
3875;SDS011;1953;51.222;6.624;2022-08-26T04:40:59;29.57;;;22.47;;
3875;SDS011;1953;51.222;6.624;2022-08-26T04:45:43;31.10;;;23.53;;
3875;SDS011;1953;51.222;6.624;2022-08-26T04:50:25;29.00;;;21.80;;
3875;SDS011;1953;51.222;6.624;2022-08-26T04:55:09;27.57;;;21.67;;
3875;SDS011;1953;51.222;6.624;2022-08-26T04:59:52;24.97;;;20.70;;
3875;SDS011;1953;51.222;6.624;2022-08-26T05:04:35;30.23;;;20.77;;
3875;SDS011;1953;51.222;6.624;2022-08-26T05:09:17;27.73;;;20.63;;
3875;SDS011;1953;51.222;6.624;2022-08-26T05:14:01;25.07;;;19.30;;
3875;SDS011;1953;51.222;6.624;2022-08-26T05:18:45;32.17;;;17.67;;
3875;SDS011;1953;51.222;6.624;2022-08-26T05:23:28;26.43;;;17.70;;
3875;SDS011;1953;51.222;6.624;2022-08-26T05:28:12;27.80;;;18.37;;
3875;SDS011;1953;51.222;6.624;2022-08-26T05:32:58;27.00;;;18.30;;
3875;SDS011;1953;51.222;6.624;2022-08-26T05:37:41;21.07;;;16.97;;
3875;SDS011;1953;51.222;6.624;2022-08-26T05:42:23;24.60;;;15.57;;
3875;SDS011;1953;51.222;6.624;2022-08-26T05:47:06;15.53;;;13.67;;
3875;SDS011;1953;51.222;6.624;2022-08-26T05:51:50;22.87;;;14.33;;
3875;SDS011;1953;51.222;6.624;2022-08-26T05:56:32;16.90;;;13.00;;
3875;SDS011;1953;51.222;6.624;2022-08-26T06:01:16;17.77;;;13.40;;
3875;SDS011;1953;51.222;6.624;2022-08-26T06:06:01;19.90;;;13.60;;
3875;SDS011;1953;51.222;6.624;2022-08-26T06:10:47;18.77;;;12.73;;
3875;SDS011;1953;51.222;6.624;2022-08-26T06:15:32;19.37;;;12.53;;
3875;SDS011;1953;51.222;6.624;2022-08-26T06:20:15;23.60;;;12.90;;
3875;SDS011;1953;51.222;6.624;2022-08-26T06:24:57;17.73;;;11.83;;
3875;SDS011;1953;51.222;6.624;2022-08-26T06:29:59;19.17;;;13.33;;
3875;SDS011;1953;51.222;6.624;2022-08-26T06:34:42;17.57;;;12.47;;
3875;SDS011;1953;51.222;6.624;2022-08-26T06:39:24;20.23;;;12.17;;
3875;SDS011;1953;51.222;6.624;2022-08-26T06:44:07;14.90;;;11.20;;
3875;SDS011;1953;51.222;6.624;2022-08-26T06:48:51;20.40;;;12.90;;
3875;SDS011;1953;51.222;6.624;2022-08-26T06:53:34;20.97;;;12.60;;
3875;SDS011;1953;51.222;6.624;2022-08-26T06:58:16;23.00;;;12.60;;
3875;SDS011;1953;51.222;6.624;2022-08-26T07:02:59;19.90;;;12.80;;
3875;SDS011;1953;51.222;6.624;2022-08-26T07:07:42;12.93;;;10.37;;
3875;SDS011;1953;51.222;6.624;2022-08-26T07:12:25;16.93;;;11.53;;
3875;SDS011;1953;51.222;6.624;2022-08-26T07:17:07;13.13;;;10.93;;
3875;SDS011;1953;51.222;6.624;2022-08-26T07:21:50;15.30;;;11.60;;
3875;SDS011;1953;51.222;6.624;2022-08-26T07:26:34;18.37;;;11.17;;
3875;SDS011;1953;51.222;6.624;2022-08-26T07:31:16;13.70;;;10.77;;
3875;SDS011;1953;51.222;6.624;2022-08-26T07:36:00;16.90;;;11.70;;
3875;SDS011;1953;51.222;6.624;2022-08-26T07:40:43;14.33;;;11.10;;
3875;SDS011;1953;51.222;6.624;2022-08-26T07:45:26;14.70;;;12.77;;
3875;SDS011;1953;51.222;6.624;2022-08-26T07:50:09;15.30;;;12.73;;
3875;SDS011;1953;51.222;6.624;2022-08-26T07:54:52;16.77;;;11.70;;
3875;SDS011;1953;51.222;6.624;2022-08-26T07:59:35;12.83;;;10.40;;
3875;SDS011;1953;51.222;6.624;2022-08-26T08:04:19;14.90;;;10.60;;
3875;SDS011;1953;51.222;6.624;2022-08-26T08:09:02;12.93;;;8.70;;
3875;SDS011;1953;51.222;6.624;2022-08-26T08:13:45;13.90;;;8.90;;
3875;SDS011;1953;51.222;6.624;2022-08-26T08:18:28;15.03;;;9.90;;
3875;SDS011;1953;51.222;6.624;2022-08-26T08:23:12;11.17;;;8.77;;
3875;SDS011;1953;51.222;6.624;2022-08-26T08:27:56;16.83;;;9.70;;
3875;SDS011;1953;51.222;6.624;2022-08-26T08:32:39;11.63;;;8.83;;
3875;SDS011;1953;51.222;6.624;2022-08-26T08:37:23;15.97;;;8.03;;
3875;SDS011;1953;51.222;6.624;2022-08-26T08:42:26;11.80;;;7.00;;
3875;SDS011;1953;51.222;6.624;2022-08-26T08:47:19;15.43;;;7.17;;
3875;SDS011;1953;51.222;6.624;2022-08-26T08:52:17;14.90;;;6.80;;
3875;SDS011;1953;51.222;6.624;2022-08-26T08:57:10;10.93;;;7.97;;
3875;SDS011;1953;51.222;6.624;2022-08-26T09:02:00;7.50;;;6.33;;
3875;SDS011;1953;51.222;6.624;2022-08-26T09:06:51;8.97;;;5.93;;
3875;SDS011;1953;51.222;6.624;2022-08-26T09:11:36;9.47;;;6.70;;
3875;SDS011;1953;51.222;6.624;2022-08-26T09:16:19;9.17;;;6.40;;
3875;SDS011;1953;51.222;6.624;2022-08-26T09:21:06;10.87;;;6.57;;
3875;SDS011;1953;51.222;6.624;2022-08-26T09:25:52;9.15;;;5.88;;
3875;SDS011;1953;51.222;6.624;2022-08-26T09:30:37;11.93;;;7.30;;
3875;SDS011;1953;51.222;6.624;2022-08-26T09:35:22;7.03;;;6.33;;
3875;SDS011;1953;51.222;6.624;2022-08-26T09:40:21;9.27;;;6.33;;
3875;SDS011;1953;51.222;6.624;2022-08-26T09:45:07;7.07;;;5.57;;
3875;SDS011;1953;51.222;6.624;2022-08-26T09:49:55;7.37;;;6.50;;
3875;SDS011;1953;51.222;6.624;2022-08-26T09:54:40;12.57;;;6.70;;
3875;SDS011;1953;51.222;6.624;2022-08-26T09:59:28;7.47;;;6.00;;
3875;SDS011;1953;51.222;6.624;2022-08-26T10:04:12;9.50;;;5.97;;
3875;SDS011;1953;51.222;6.624;2022-08-26T10:08:56;8.63;;;6.00;;
3875;SDS011;1953;51.222;6.624;2022-08-26T10:13:41;8.57;;;7.30;;
3875;SDS011;1953;51.222;6.624;2022-08-26T10:18:30;7.50;;;6.70;;
3875;SDS011;1953;51.222;6.624;2022-08-26T10:23:16;8.73;;;6.07;;
3875;SDS011;1953;51.222;6.624;2022-08-26T10:28:03;8.77;;;5.83;;
3875;SDS011;1953;51.222;6.624;2022-08-26T10:32:49;12.27;;;6.63;;
3875;SDS011;1953;51.222;6.624;2022-08-26T10:37:37;6.63;;;5.67;;
3875;SDS011;1953;51.222;6.624;2022-08-26T10:42:23;13.10;;;5.83;;
3875;SDS011;1953;51.222;6.624;2022-08-26T10:47:11;7.53;;;5.50;;
3875;SDS011;1953;51.222;6.624;2022-08-26T10:51:58;9.40;;;4.80;;
3875;SDS011;1953;51.222;6.624;2022-08-26T10:56:48;6.60;;;4.30;;
3875;SDS011;1953;51.222;6.624;2022-08-26T11:01:39;8.37;;;4.90;;
3875;SDS011;1953;51.222;6.624;2022-08-26T11:06:29;4.60;;;3.57;;
3875;SDS011;1953;51.222;6.624;2022-08-26T11:11:19;7.10;;;3.80;;
3875;SDS011;1953;51.222;6.624;2022-08-26T11:16:39;6.70;;;4.40;;
3875;SDS011;1953;51.222;6.624;2022-08-26T11:26:45;7.27;;;5.50;;
3875;SDS011;1953;51.222;6.624;2022-08-26T11:41:36;5.20;;;4.67;;
3875;SDS011;1953;51.222;6.624;2022-08-26T11:46:23;9.57;;;5.30;;
3875;SDS011;1953;51.222;6.624;2022-08-26T11:51:09;14.47;;;5.53;;
3875;SDS011;1953;51.222;6.624;2022-08-26T11:55:53;7.73;;;3.40;;
3875;SDS011;1953;51.222;6.624;2022-08-26T12:00:45;10.93;;;4.13;;
3875;SDS011;1953;51.222;6.624;2022-08-26T12:06:49;11.17;;;4.07;;
3875;SDS011;1953;51.222;6.624;2022-08-26T12:11:34;6.93;;;3.23;;
3875;SDS011;1953;51.222;6.624;2022-08-26T12:16:21;9.87;;;3.27;;
3875;SDS011;1953;51.222;6.624;2022-08-26T12:21:12;6.50;;;3.27;;
3875;SDS011;1953;51.222;6.624;2022-08-26T12:26:03;14.27;;;3.40;;
3875;SDS011;1953;51.222;6.624;2022-08-26T12:30:57;10.77;;;3.40;;
3875;SDS011;1953;51.222;6.624;2022-08-26T12:35:41;10.30;;;3.43;;
3875;SDS011;1953;51.222;6.624;2022-08-26T12:40:26;8.70;;;3.47;;
3875;SDS011;1953;51.222;6.624;2022-08-26T12:45:15;7.97;;;4.13;;
3875;SDS011;1953;51.222;6.624;2022-08-26T12:50:09;8.60;;;3.93;;
3875;SDS011;1953;51.222;6.624;2022-08-26T12:54:59;5.70;;;3.17;;
3875;SDS011;1953;51.222;6.624;2022-08-26T12:59:42;11.50;;;3.50;;
3875;SDS011;1953;51.222;6.624;2022-08-26T13:04:34;7.93;;;4.03;;
3875;SDS011;1953;51.222;6.624;2022-08-26T13:09:28;6.97;;;4.53;;
3875;SDS011;1953;51.222;6.624;2022-08-26T13:14:12;6.90;;;4.13;;
3875;SDS011;1953;51.222;6.624;2022-08-26T13:18:56;5.93;;;3.47;;
3875;SDS011;1953;51.222;6.624;2022-08-26T13:23:41;12.90;;;4.90;;
3875;SDS011;1953;51.222;6.624;2022-08-26T13:28:24;7.90;;;4.77;;
3875;SDS011;1953;51.222;6.624;2022-08-26T13:33:06;14.53;;;4.60;;
3875;SDS011;1953;51.222;6.624;2022-08-26T13:37:49;10.33;;;4.00;;
3875;SDS011;1953;51.222;6.624;2022-08-26T13:42:33;12.70;;;5.00;;
3875;SDS011;1953;51.222;6.624;2022-08-26T13:47:15;11.73;;;4.53;;
3875;SDS011;1953;51.222;6.624;2022-08-26T13:52:00;9.57;;;4.50;;
3875;SDS011;1953;51.222;6.624;2022-08-26T13:56:43;10.37;;;4.37;;
3875;SDS011;1953;51.222;6.624;2022-08-26T14:01:27;12.30;;;5.00;;
3875;SDS011;1953;51.222;6.624;2022-08-26T14:06:10;9.10;;;3.70;;
3875;SDS011;1953;51.222;6.624;2022-08-26T14:10:53;7.97;;;4.13;;
3875;SDS011;1953;51.222;6.624;2022-08-26T14:15:35;10.30;;;4.03;;
3875;SDS011;1953;51.222;6.624;2022-08-26T14:20:22;8.73;;;3.80;;
3875;SDS011;1953;51.222;6.624;2022-08-26T14:25:07;11.30;;;3.63;;
3875;SDS011;1953;51.222;6.624;2022-08-26T14:29:51;8.17;;;3.83;;
3875;SDS011;1953;51.222;6.624;2022-08-26T14:34:34;6.23;;;3.30;;
3875;SDS011;1953;51.222;6.624;2022-08-26T14:39:17;7.23;;;3.93;;
3875;SDS011;1953;51.222;6.624;2022-08-26T14:44:01;5.70;;;3.57;;
3875;SDS011;1953;51.222;6.624;2022-08-26T14:48:45;7.10;;;3.57;;
3875;SDS011;1953;51.222;6.624;2022-08-26T14:53:28;5.50;;;3.50;;
3875;SDS011;1953;51.222;6.624;2022-08-26T14:58:40;5.73;;;3.43;;
3875;SDS011;1953;51.222;6.624;2022-08-26T15:03:23;7.00;;;3.50;;
3875;SDS011;1953;51.222;6.624;2022-08-26T15:08:07;5.57;;;3.43;;
3875;SDS011;1953;51.222;6.624;2022-08-26T15:12:50;13.23;;;3.70;;
3875;SDS011;1953;51.222;6.624;2022-08-26T15:17:37;8.33;;;3.67;;
3875;SDS011;1953;51.222;6.624;2022-08-26T15:22:20;4.40;;;2.93;;
3875;SDS011;1953;51.222;6.624;2022-08-26T15:27:02;8.97;;;3.03;;
3875;SDS011;1953;51.222;6.624;2022-08-26T15:31:45;8.30;;;3.20;;
3875;SDS011;1953;51.222;6.624;2022-08-26T15:36:30;5.30;;;2.70;;
3875;SDS011;1953;51.222;6.624;2022-08-26T15:41:13;4.50;;;2.63;;
3875;SDS011;1953;51.222;6.624;2022-08-26T15:45:56;6.07;;;2.83;;
3875;SDS011;1953;51.222;6.624;2022-08-26T15:50:40;4.67;;;2.83;;
3875;SDS011;1953;51.222;6.624;2022-08-26T15:55:34;6.70;;;3.23;;
3875;SDS011;1953;51.222;6.624;2022-08-26T16:00:17;5.30;;;2.30;;
3875;SDS011;1953;51.222;6.624;2022-08-26T16:05:00;5.00;;;2.70;;
3875;SDS011;1953;51.222;6.624;2022-08-26T16:09:42;3.03;;;2.40;;
3875;SDS011;1953;51.222;6.624;2022-08-26T16:14:26;4.90;;;2.57;;
3875;SDS011;1953;51.222;6.624;2022-08-26T16:19:09;4.63;;;2.57;;
3875;SDS011;1953;51.222;6.624;2022-08-26T16:23:52;5.60;;;3.03;;
3875;SDS011;1953;51.222;6.624;2022-08-26T16:28:35;6.30;;;2.57;;
3875;SDS011;1953;51.222;6.624;2022-08-26T16:33:19;3.60;;;2.70;;
3875;SDS011;1953;51.222;6.624;2022-08-26T16:38:01;5.00;;;2.77;;
3875;SDS011;1953;51.222;6.624;2022-08-26T16:42:44;7.30;;;3.57;;
3875;SDS011;1953;51.222;6.624;2022-08-26T16:47:27;5.60;;;2.87;;
3875;SDS011;1953;51.222;6.624;2022-08-26T16:52:10;4.13;;;3.10;;
3875;SDS011;1953;51.222;6.624;2022-08-26T16:56:53;3.60;;;2.43;;
3875;SDS011;1953;51.222;6.624;2022-08-26T17:01:36;4.77;;;2.70;;
3875;SDS011;1953;51.222;6.624;2022-08-26T17:06:18;7.13;;;1.90;;
3875;SDS011;1953;51.222;6.624;2022-08-26T17:11:02;5.47;;;2.80;;
3875;SDS011;1953;51.222;6.624;2022-08-26T17:15:45;4.63;;;2.57;;
3875;SDS011;1953;51.222;6.624;2022-08-26T17:20:33;5.50;;;2.50;;
3875;SDS011;1953;51.222;6.624;2022-08-26T17:25:17;4.60;;;2.47;;
3875;SDS011;1953;51.222;6.624;2022-08-26T17:30:02;3.30;;;2.20;;
3875;SDS011;1953;51.222;6.624;2022-08-26T17:34:46;6.83;;;2.73;;
3875;SDS011;1953;51.222;6.624;2022-08-26T17:39:28;3.03;;;2.30;;
3875;SDS011;1953;51.222;6.624;2022-08-26T17:44:11;4.63;;;2.60;;
3875;SDS011;1953;51.222;6.624;2022-08-26T17:48:55;6.57;;;2.40;;
3875;SDS011;1953;51.222;6.624;2022-08-26T17:53:37;3.90;;;2.77;;
3875;SDS011;1953;51.222;6.624;2022-08-26T17:58:20;6.03;;;2.80;;
3875;SDS011;1953;51.222;6.624;2022-08-26T18:03:03;3.20;;;2.70;;
3875;SDS011;1953;51.222;6.624;2022-08-26T18:07:47;5.33;;;2.70;;
3875;SDS011;1953;51.222;6.624;2022-08-26T18:12:30;5.23;;;3.07;;
3875;SDS011;1953;51.222;6.624;2022-08-26T18:17:12;9.03;;;2.50;;
3875;SDS011;1953;51.222;6.624;2022-08-26T18:21:56;7.60;;;2.53;;
3875;SDS011;1953;51.222;6.624;2022-08-26T18:26:40;7.03;;;2.30;;
3875;SDS011;1953;51.222;6.624;2022-08-26T18:31:28;2.73;;;2.30;;
3875;SDS011;1953;51.222;6.624;2022-08-26T18:36:14;3.63;;;2.53;;
3875;SDS011;1953;51.222;6.624;2022-08-26T18:41:02;9.07;;;2.50;;
3875;SDS011;1953;51.222;6.624;2022-08-26T18:45:46;3.90;;;2.10;;
3875;SDS011;1953;51.222;6.624;2022-08-26T18:50:29;2.90;;;2.13;;
3875;SDS011;1953;51.222;6.624;2022-08-26T18:55:11;6.00;;;1.97;;
3875;SDS011;1953;51.222;6.624;2022-08-26T18:59:54;2.63;;;1.70;;
3875;SDS011;1953;51.222;6.624;2022-08-26T19:04:37;5.43;;;2.20;;
3875;SDS011;1953;51.222;6.624;2022-08-26T19:09:20;4.03;;;2.20;;
3875;SDS011;1953;51.222;6.624;2022-08-26T19:14:06;4.83;;;1.90;;
3875;SDS011;1953;51.222;6.624;2022-08-26T19:18:50;4.90;;;2.50;;
3875;SDS011;1953;51.222;6.624;2022-08-26T19:23:35;4.83;;;2.93;;
3875;SDS011;1953;51.222;6.624;2022-08-26T19:28:18;4.50;;;2.63;;
3875;SDS011;1953;51.222;6.624;2022-08-26T19:33:02;2.70;;;2.13;;
3875;SDS011;1953;51.222;6.624;2022-08-26T19:37:45;5.13;;;2.47;;
3875;SDS011;1953;51.222;6.624;2022-08-26T19:42:28;6.60;;;2.80;;
3875;SDS011;1953;51.222;6.624;2022-08-26T19:47:11;4.60;;;2.70;;
3875;SDS011;1953;51.222;6.624;2022-08-26T19:51:54;4.40;;;2.90;;
3875;SDS011;1953;51.222;6.624;2022-08-26T19:56:37;4.77;;;2.80;;
3875;SDS011;1953;51.222;6.624;2022-08-26T20:01:22;5.80;;;2.70;;
3875;SDS011;1953;51.222;6.624;2022-08-26T20:06:05;3.70;;;2.50;;
3875;SDS011;1953;51.222;6.624;2022-08-26T20:10:49;4.33;;;2.43;;
3875;SDS011;1953;51.222;6.624;2022-08-26T20:15:32;4.73;;;3.00;;
3875;SDS011;1953;51.222;6.624;2022-08-26T20:20:16;5.43;;;2.93;;
3875;SDS011;1953;51.222;6.624;2022-08-26T20:25:16;6.00;;;2.97;;
3875;SDS011;1953;51.222;6.624;2022-08-26T20:29:59;6.70;;;3.10;;
3875;SDS011;1953;51.222;6.624;2022-08-26T20:34:42;6.40;;;2.50;;
3875;SDS011;1953;51.222;6.624;2022-08-26T20:39:26;4.80;;;2.63;;
3875;SDS011;1953;51.222;6.624;2022-08-26T20:44:09;3.73;;;2.53;;
3875;SDS011;1953;51.222;6.624;2022-08-26T20:48:53;9.20;;;2.40;;
3875;SDS011;1953;51.222;6.624;2022-08-26T20:53:35;10.43;;;2.97;;
3875;SDS011;1953;51.222;6.624;2022-08-26T20:58:20;6.57;;;2.50;;
3875;SDS011;1953;51.222;6.624;2022-08-26T21:03:04;5.77;;;2.50;;
3875;SDS011;1953;51.222;6.624;2022-08-26T21:07:47;4.77;;;2.43;;
3875;SDS011;1953;51.222;6.624;2022-08-26T21:12:30;3.67;;;2.50;;
3875;SDS011;1953;51.222;6.624;2022-08-26T21:17:13;4.37;;;2.50;;
3875;SDS011;1953;51.222;6.624;2022-08-26T21:21:56;5.03;;;2.70;;
3875;SDS011;1953;51.222;6.624;2022-08-26T21:26:39;6.33;;;2.40;;
3875;SDS011;1953;51.222;6.624;2022-08-26T21:31:22;9.00;;;2.63;;
3875;SDS011;1953;51.222;6.624;2022-08-26T21:36:07;7.00;;;2.20;;
3875;SDS011;1953;51.222;6.624;2022-08-26T21:40:57;3.13;;;2.40;;
3875;SDS011;1953;51.222;6.624;2022-08-26T21:45:40;7.37;;;2.10;;
3875;SDS011;1953;51.222;6.624;2022-08-26T21:50:22;5.67;;;2.27;;
3875;SDS011;1953;51.222;6.624;2022-08-26T21:55:07;4.17;;;2.07;;
3875;SDS011;1953;51.222;6.624;2022-08-26T21:59:50;3.27;;;2.37;;
3875;SDS011;1953;51.222;6.624;2022-08-26T22:04:33;6.37;;;2.70;;
3875;SDS011;1953;51.222;6.624;2022-08-26T22:09:17;4.60;;;2.80;;
3875;SDS011;1953;51.222;6.624;2022-08-26T22:14:03;5.27;;;2.73;;
3875;SDS011;1953;51.222;6.624;2022-08-26T22:18:46;5.80;;;2.50;;
3875;SDS011;1953;51.222;6.624;2022-08-26T22:23:28;10.33;;;3.40;;
3875;SDS011;1953;51.222;6.624;2022-08-26T22:28:11;14.23;;;3.73;;
3875;SDS011;1953;51.222;6.624;2022-08-26T22:32:54;8.60;;;2.90;;
3875;SDS011;1953;51.222;6.624;2022-08-26T22:37:37;6.00;;;2.40;;
3875;SDS011;1953;51.222;6.624;2022-08-26T22:42:19;9.47;;;3.50;;
3875;SDS011;1953;51.222;6.624;2022-08-26T22:47:02;11.67;;;3.50;;
3875;SDS011;1953;51.222;6.624;2022-08-26T22:51:46;5.97;;;3.77;;
3875;SDS011;1953;51.222;6.624;2022-08-26T22:56:28;8.80;;;3.40;;
3875;SDS011;1953;51.222;6.624;2022-08-26T23:01:11;6.67;;;3.63;;
3875;SDS011;1953;51.222;6.624;2022-08-26T23:05:55;6.70;;;4.00;;
3875;SDS011;1953;51.222;6.624;2022-08-26T23:10:40;8.43;;;4.50;;
3875;SDS011;1953;51.222;6.624;2022-08-26T23:15:24;10.50;;;5.50;;
3875;SDS011;1953;51.222;6.624;2022-08-26T23:20:08;5.80;;;4.70;;
3875;SDS011;1953;51.222;6.624;2022-08-26T23:24:52;10.57;;;4.30;;
3875;SDS011;1953;51.222;6.624;2022-08-26T23:29:36;12.80;;;5.17;;
3875;SDS011;1953;51.222;6.624;2022-08-26T23:34:19;11.97;;;5.57;;
3875;SDS011;1953;51.222;6.624;2022-08-26T23:39:19;9.60;;;5.00;;
3875;SDS011;1953;51.222;6.624;2022-08-26T23:44:02;17.80;;;5.97;;
3875;SDS011;1953;51.222;6.624;2022-08-26T23:48:46;10.47;;;5.30;;
3875;SDS011;1953;51.222;6.624;2022-08-26T23:53:29;9.07;;;5.23;;
3875;SDS011;1953;51.222;6.624;2022-08-26T23:58:11;8.43;;;5.80;;
